createdAt,value
2023-05-18T00:01:32.317Z,100.00
2023-05-18T00:04:29.659Z,100.00
2023-05-18T00:07:26.632Z,100.00
2023-05-18T00:10:23.518Z,100.00
2023-05-18T00:13:20.562Z,100.00
2023-05-18T00:16:17.478Z,100.00
2023-05-18T00:19:15.664Z,100.00
2023-05-18T00:22:18.082Z,100.00
2023-05-18T00:25:14.948Z,100.00
2023-05-18T00:28:12.752Z,100.00
2023-05-18T00:31:09.623Z,100.00
2023-05-18T00:34:14.986Z,100.00
2023-05-18T00:37:11.849Z,100.00
2023-05-18T00:40:10.501Z,100.00
2023-05-18T00:43:08.489Z,100.00
2023-05-18T00:46:05.571Z,100.00
2023-05-18T00:49:02.879Z,100.00
2023-05-18T00:52:02.728Z,100.00
2023-05-18T00:55:00.250Z,100.00
2023-05-18T00:57:57.394Z,100.00
2023-05-18T01:00:54.422Z,100.00
2023-05-18T01:03:56.626Z,100.00
2023-05-18T01:06:56.520Z,100.00
2023-05-18T01:09:54.550Z,100.00
2023-05-18T01:13:05.578Z,100.00
2023-05-18T01:16:09.795Z,100.00
2023-05-18T01:19:55.558Z,100.00
2023-05-18T01:23:10.179Z,100.00
2023-05-18T01:26:15.927Z,100.00
2023-05-18T01:29:15.461Z,100.00
2023-05-18T01:32:22.180Z,100.00
2023-05-18T01:35:19.061Z,100.00
2023-05-18T01:38:22.471Z,100.00
2023-05-18T01:41:24.886Z,100.00
2023-05-18T01:44:36.572Z,100.00
2023-05-18T01:47:35.575Z,100.00
2023-05-18T01:50:39.968Z,100.00
2023-05-18T01:53:44.909Z,100.00
2023-05-18T01:56:43.569Z,100.00
2023-05-18T01:59:41.869Z,100.00
2023-05-18T02:02:38.905Z,100.00
2023-05-18T02:05:35.871Z,100.00
2023-05-18T02:08:33.652Z,100.00
2023-05-18T02:11:30.992Z,100.00
2023-05-18T02:14:27.954Z,100.00
2023-05-18T02:17:26.328Z,100.00
2023-05-18T02:20:23.249Z,100.00
2023-05-18T02:23:20.092Z,100.00
2023-05-18T02:26:16.941Z,100.00
2023-05-18T02:29:14.691Z,100.00
2023-05-18T02:32:11.685Z,100.00
2023-05-18T02:35:10.193Z,100.00
2023-05-18T02:38:07.442Z,100.00
2023-05-18T02:41:04.424Z,100.00
2023-05-18T02:44:02.936Z,100.00
2023-05-18T02:46:59.801Z,100.00
2023-05-18T02:49:56.680Z,100.00
2023-05-18T02:52:53.519Z,100.00
2023-05-18T02:55:56.978Z,100.00
2023-05-18T02:58:58.249Z,100.00
2023-05-18T03:01:55.950Z,100.00
2023-05-18T03:04:54.221Z,100.00
2023-05-18T03:07:52.272Z,100.00
2023-05-18T03:10:50.258Z,100.00
2023-05-18T03:13:47.799Z,100.00
2023-05-18T03:16:45.130Z,100.00
2023-05-18T03:19:42.052Z,100.00
2023-05-18T03:22:38.902Z,100.00
2023-05-18T03:25:37.361Z,100.00
2023-05-18T03:28:34.256Z,100.00
2023-05-18T03:31:31.443Z,100.00
2023-05-18T03:34:28.425Z,100.00
2023-05-18T03:37:25.443Z,100.00
2023-05-18T03:40:22.565Z,100.00
2023-05-18T03:43:19.408Z,100.00
2023-05-18T03:46:16.374Z,100.00
2023-05-18T03:49:13.245Z,100.00
2023-05-18T03:52:10.280Z,100.00
2023-05-18T03:55:07.467Z,100.00
2023-05-18T03:58:04.336Z,100.00
2023-05-18T04:01:01.585Z,100.00
2023-05-18T04:03:59.483Z,100.00
2023-05-18T04:06:56.432Z,100.00
2023-05-18T04:09:56.148Z,100.00
2023-05-18T04:12:53.069Z,100.00
2023-05-18T04:15:49.966Z,100.00
2023-05-18T04:18:46.905Z,100.00
2023-05-18T04:21:43.852Z,100.00
2023-05-18T04:24:45.723Z,100.00
2023-05-18T04:27:45.479Z,100.00
2023-05-18T04:30:42.677Z,100.00
2023-05-18T04:33:40.391Z,100.00
2023-05-18T04:36:42.600Z,100.00
2023-05-18T04:39:39.660Z,100.00
2023-05-18T04:42:36.583Z,100.00
2023-05-18T04:45:34.359Z,100.00
2023-05-18T04:48:32.077Z,100.00
2023-05-18T04:51:29.075Z,100.00
2023-05-18T04:54:28.385Z,100.00
2023-05-18T04:57:25.388Z,100.00
2023-05-18T05:00:27.971Z,100.00
2023-05-18T05:03:24.941Z,100.00
2023-05-18T05:06:21.874Z,100.00
2023-05-18T05:09:18.780Z,100.00
2023-05-18T05:12:15.870Z,100.00
2023-05-18T05:15:12.927Z,100.00
2023-05-18T05:18:09.864Z,100.00
2023-05-18T05:21:06.785Z,100.00
2023-05-18T05:24:06.034Z,100.00
2023-05-18T05:27:02.898Z,100.00
2023-05-18T05:29:59.835Z,100.00
2023-05-18T05:32:56.726Z,100.00
2023-05-18T05:35:53.929Z,100.00
2023-05-18T05:38:50.866Z,100.00
2023-05-18T05:41:47.756Z,100.00
2023-05-18T05:44:44.685Z,100.00
2023-05-18T05:47:41.598Z,100.00
2023-05-18T05:50:38.542Z,100.00
2023-05-18T05:53:35.402Z,100.00
2023-05-18T05:56:32.318Z,100.00
2023-05-18T05:59:29.322Z,100.00
2023-05-18T06:02:26.382Z,100.00
2023-05-18T06:05:23.433Z,100.00
2023-05-18T06:08:20.702Z,100.00
2023-05-18T06:11:18.029Z,100.00
2023-05-18T06:14:14.912Z,100.00
2023-05-18T06:17:12.000Z,100.00
2023-05-18T06:20:09.290Z,100.00
2023-05-18T06:23:06.267Z,100.00
2023-05-18T06:26:03.201Z,100.00
2023-05-18T06:29:00.150Z,100.00
2023-05-18T06:31:57.819Z,100.00
2023-05-18T06:34:54.720Z,100.00
2023-05-18T06:37:51.619Z,100.00
2023-05-18T06:40:48.507Z,100.00
2023-05-18T06:43:45.623Z,100.00
2023-05-18T06:46:42.612Z,100.00
2023-05-18T06:49:39.701Z,100.00
2023-05-18T06:52:36.602Z,100.00
2023-05-18T06:55:33.650Z,100.00
2023-05-18T06:58:30.662Z,100.00
2023-05-18T07:01:27.813Z,99.22
2023-05-18T07:04:24.773Z,97.86
2023-05-18T07:07:22.203Z,100.00
2023-05-18T07:10:19.128Z,99.61
2023-05-18T07:13:16.024Z,99.20
2023-05-18T07:16:12.931Z,89.96
2023-05-18T07:19:09.899Z,89.59
2023-05-18T07:22:07.705Z,94.21
2023-05-18T07:25:05.701Z,88.30
2023-05-18T07:28:02.539Z,89.79
2023-05-18T07:30:59.567Z,71.39
2023-05-18T07:33:56.504Z,82.92
2023-05-18T07:36:53.998Z,82.06
2023-05-18T07:39:51.234Z,83.03
2023-05-18T07:42:48.084Z,80.67
2023-05-18T07:45:44.920Z,75.40
2023-05-18T07:48:41.840Z,69.21
2023-05-18T07:51:38.749Z,65.59
2023-05-18T07:54:35.902Z,67.48
2023-05-18T07:57:34.363Z,65.45
2023-05-18T08:00:31.658Z,65.17
2023-05-18T08:03:28.699Z,63.64
2023-05-18T08:06:25.635Z,61.18
2023-05-18T08:09:22.480Z,59.72
2023-05-18T08:12:19.384Z,57.11
2023-05-18T08:15:16.217Z,55.01
2023-05-18T08:18:13.089Z,53.07
2023-05-18T08:21:10.689Z,54.33
2023-05-18T08:24:09.911Z,52.30
2023-05-18T08:27:09.783Z,50.28
2023-05-18T08:30:08.174Z,49.75
2023-05-18T08:33:05.055Z,50.99
2023-05-18T08:36:01.951Z,49.41
2023-05-18T08:38:59.018Z,47.83
2023-05-18T08:42:16.400Z,47.50
2023-05-18T08:45:23.548Z,48.88
2023-05-18T08:48:25.710Z,48.62
2023-05-18T08:51:25.256Z,49.66
2023-05-18T08:54:23.465Z,52.14
2023-05-18T08:57:23.484Z,53.24
2023-05-18T09:00:22.935Z,49.79
2023-05-18T09:03:21.841Z,47.61
2023-05-18T09:06:23.987Z,46.19
2023-05-18T09:09:23.595Z,45.47
2023-05-18T09:12:24.442Z,45.21
2023-05-18T09:15:21.987Z,43.42
2023-05-18T09:18:19.475Z,47.05
2023-05-18T09:21:17.766Z,47.87
2023-05-18T09:24:15.347Z,48.65
2023-05-18T09:27:12.201Z,46.45
2023-05-18T09:30:11.658Z,43.78
2023-05-18T09:33:21.927Z,44.77
2023-05-18T09:36:26.324Z,43.07
2023-05-18T09:39:23.275Z,42.33
2023-05-18T09:42:21.669Z,44.82
2023-05-18T09:45:25.613Z,45.18
2023-05-18T09:48:25.200Z,45.41
2023-05-18T09:51:25.226Z,43.98
2023-05-18T09:54:24.432Z,44.17
2023-05-18T09:57:21.939Z,41.82
2023-05-18T10:00:22.302Z,39.95
2023-05-18T10:03:24.980Z,41.57
2023-05-18T10:06:27.585Z,43.24
2023-05-18T10:09:24.509Z,41.62
2023-05-18T10:12:26.104Z,44.08
2023-05-18T10:15:24.483Z,43.04
2023-05-18T10:18:34.322Z,41.23
2023-05-18T10:21:33.951Z,39.48
2023-05-18T10:24:39.488Z,40.09
2023-05-18T10:27:36.952Z,44.82
2023-05-18T10:30:35.240Z,42.70
2023-05-18T10:33:36.453Z,42.77
2023-05-18T10:36:35.935Z,43.71
2023-05-18T10:39:37.266Z,44.91
2023-05-18T10:42:35.023Z,42.31
2023-05-18T10:45:37.228Z,39.73
2023-05-18T10:48:40.440Z,39.16
2023-05-18T10:51:38.919Z,42.56
2023-05-18T10:54:36.890Z,42.29
2023-05-18T10:58:00.947Z,45.96
2023-05-18T11:01:03.169Z,39.42
2023-05-18T11:04:06.495Z,41.69
2023-05-18T11:07:03.719Z,42.99
2023-05-18T11:10:10.848Z,45.89
2023-05-18T11:13:11.090Z,41.18
2023-05-18T11:16:09.080Z,41.84
2023-05-18T11:19:12.253Z,43.09
2023-05-18T11:22:12.736Z,43.62
2023-05-18T11:25:10.125Z,39.25
2023-05-18T11:28:11.706Z,37.65
2023-05-18T11:31:17.490Z,46.30
2023-05-18T11:34:46.598Z,43.24
2023-05-18T11:37:44.868Z,40.88
2023-05-18T11:40:50.212Z,38.71
2023-05-18T11:44:10.144Z,35.93
2023-05-18T11:47:11.454Z,37.80
2023-05-18T11:50:12.169Z,38.67
2023-05-18T11:53:15.030Z,36.90
2023-05-18T11:56:12.941Z,39.57
2023-05-18T11:59:14.296Z,38.93
2023-05-18T12:02:13.763Z,38.28
2023-05-18T12:05:11.093Z,40.47
2023-05-18T12:08:09.791Z,44.60
2023-05-18T12:11:07.553Z,39.93
2023-05-18T12:14:06.014Z,38.66
2023-05-18T12:17:03.164Z,35.51
2023-05-18T12:20:00.263Z,37.26
2023-05-18T12:22:58.785Z,37.02
2023-05-18T12:25:56.158Z,39.35
2023-05-18T12:28:53.411Z,38.57
2023-05-18T12:31:50.443Z,37.41
2023-05-18T12:34:47.377Z,38.58
2023-05-18T12:37:46.259Z,36.53
2023-05-18T12:40:48.692Z,35.79
2023-05-18T12:43:45.698Z,38.53
2023-05-18T12:46:45.809Z,36.31
2023-05-18T12:49:50.205Z,40.17
2023-05-18T12:52:51.886Z,37.01
2023-05-18T12:55:59.606Z,41.26
2023-05-18T12:59:02.987Z,36.23
2023-05-18T13:02:00.017Z,34.52
2023-05-18T13:05:11.083Z,34.24
2023-05-18T13:08:08.503Z,34.79
2023-05-18T13:11:14.471Z,43.03
2023-05-18T13:14:11.878Z,36.87
2023-05-18T13:17:08.743Z,35.81
2023-05-18T13:20:14.680Z,38.95
2023-05-18T13:23:14.173Z,34.85
2023-05-18T13:26:11.134Z,37.72
2023-05-18T13:29:08.657Z,34.40
2023-05-18T13:32:06.091Z,36.21
2023-05-18T13:35:03.316Z,36.45
2023-05-18T13:38:00.197Z,38.36
2023-05-18T13:40:57.034Z,38.03
2023-05-18T13:43:53.921Z,39.63
2023-05-18T13:46:50.796Z,39.85
2023-05-18T13:49:47.618Z,39.99
2023-05-18T13:52:46.312Z,38.09
2023-05-18T13:55:43.159Z,37.81
2023-05-18T13:58:40.052Z,41.25
2023-05-18T14:01:36.977Z,37.64
2023-05-18T14:04:33.826Z,37.93
2023-05-18T14:07:30.912Z,41.18
2023-05-18T14:10:27.801Z,39.68
2023-05-18T14:13:24.650Z,38.77
2023-05-18T14:16:21.571Z,38.13
2023-05-18T14:19:18.571Z,37.47
2023-05-18T14:22:16.555Z,37.72
2023-05-18T14:25:13.457Z,39.52
2023-05-18T14:28:10.427Z,45.07
2023-05-18T14:31:07.336Z,38.97
2023-05-18T14:34:04.226Z,45.25
2023-05-18T14:37:01.112Z,39.70
2023-05-18T14:39:57.996Z,40.38
2023-05-18T14:42:54.878Z,40.25
2023-05-18T14:46:04.287Z,42.11
2023-05-18T14:49:05.489Z,38.34
2023-05-18T14:52:02.332Z,38.74
2023-05-18T14:54:59.208Z,37.96
2023-05-18T14:57:56.087Z,36.67
2023-05-18T15:00:52.915Z,36.36
2023-05-18T15:03:49.963Z,36.66
2023-05-18T15:06:47.673Z,39.75
2023-05-18T15:09:44.522Z,43.73
2023-05-18T15:12:41.401Z,42.25
2023-05-18T15:15:38.279Z,39.53
2023-05-18T15:18:35.614Z,40.02
2023-05-18T15:21:32.491Z,40.42
2023-05-18T15:24:29.433Z,41.79
2023-05-18T15:27:26.479Z,41.53
2023-05-18T15:30:23.453Z,40.47
2023-05-18T15:33:20.366Z,37.80
2023-05-18T15:36:17.424Z,38.01
2023-05-18T15:39:14.538Z,37.07
2023-05-18T15:42:11.865Z,39.07
2023-05-18T15:45:09.584Z,37.74
2023-05-18T15:48:06.671Z,43.63
2023-05-18T15:51:03.730Z,37.31
2023-05-18T15:54:01.622Z,43.73
2023-05-18T15:56:58.477Z,37.68
2023-05-18T15:59:55.405Z,40.82
2023-05-18T16:02:52.317Z,41.57
2023-05-18T16:05:50.199Z,44.30
2023-05-18T16:08:47.102Z,40.96
2023-05-18T16:11:43.927Z,43.06
2023-05-18T16:14:40.815Z,44.17
2023-05-18T16:17:37.755Z,46.46
2023-05-18T16:20:34.919Z,43.71
2023-05-18T16:23:31.975Z,45.95
2023-05-18T16:26:28.886Z,46.57
2023-05-18T16:29:25.729Z,55.14
2023-05-18T16:32:22.687Z,46.47
2023-05-18T16:35:19.629Z,48.65
2023-05-18T16:38:16.809Z,46.18
2023-05-18T16:41:14.784Z,47.08
2023-05-18T16:44:11.650Z,48.58
2023-05-18T16:47:08.501Z,48.65
2023-05-18T16:50:06.542Z,48.42
2023-05-18T16:53:04.517Z,48.14
2023-05-18T16:56:02.917Z,53.55
2023-05-18T16:58:59.758Z,48.31
2023-05-18T17:01:56.694Z,52.15
2023-05-18T17:04:53.577Z,47.37
2023-05-18T17:07:52.749Z,49.64
2023-05-18T17:10:49.633Z,51.45
2023-05-18T17:13:46.538Z,51.62
2023-05-18T17:16:43.388Z,49.89
2023-05-18T17:19:41.479Z,51.17
2023-05-18T17:22:38.427Z,51.14
2023-05-18T17:25:35.356Z,53.06
2023-05-18T17:28:32.223Z,55.04
2023-05-18T17:31:29.182Z,53.12
2023-05-18T17:34:26.961Z,51.94
2023-05-18T17:37:23.874Z,53.21
2023-05-18T17:40:21.069Z,54.03
2023-05-18T17:43:17.906Z,52.26
2023-05-18T17:46:14.765Z,57.62
2023-05-18T17:49:14.839Z,53.18
2023-05-18T17:52:12.465Z,53.17
2023-05-18T17:55:09.731Z,53.48
2023-05-18T17:58:06.630Z,56.25
2023-05-18T18:01:03.993Z,56.22
2023-05-18T18:04:00.979Z,54.31
2023-05-18T18:06:58.489Z,58.54
2023-05-18T18:09:55.372Z,57.18
2023-05-18T18:12:52.327Z,57.14
2023-05-18T18:15:49.408Z,60.25
2023-05-18T18:18:46.839Z,61.49
2023-05-18T18:21:43.722Z,63.94
2023-05-18T18:24:40.579Z,63.44
2023-05-18T18:27:37.419Z,61.69
2023-05-18T18:30:34.473Z,63.47
2023-05-18T18:33:32.744Z,62.75
2023-05-18T18:36:29.872Z,62.96
2023-05-18T18:39:26.936Z,64.86
2023-05-18T18:42:23.798Z,63.85
2023-05-18T18:45:20.651Z,61.80
2023-05-18T18:48:21.055Z,67.12
2023-05-18T18:51:17.873Z,67.41
2023-05-18T18:54:14.779Z,65.44
2023-05-18T18:57:12.159Z,64.68
2023-05-18T19:00:13.644Z,70.64
2023-05-18T19:03:10.794Z,72.48
2023-05-18T19:06:07.811Z,73.13
2023-05-18T19:09:04.730Z,76.91
2023-05-18T19:12:02.103Z,74.10
2023-05-18T19:14:59.116Z,75.48
2023-05-18T19:17:56.129Z,74.07
2023-05-18T19:20:52.987Z,80.24
2023-05-18T19:23:49.854Z,75.21
2023-05-18T19:26:46.708Z,75.87
2023-05-18T19:29:43.537Z,74.38
2023-05-18T19:32:40.817Z,75.38
2023-05-18T19:35:37.722Z,82.19
2023-05-18T19:38:34.554Z,80.97
2023-05-18T19:41:31.429Z,84.00
2023-05-18T19:44:28.288Z,84.60
2023-05-18T19:47:25.842Z,79.36
2023-05-18T19:50:22.787Z,75.62
2023-05-18T19:53:19.635Z,73.81
2023-05-18T19:56:16.473Z,73.33
2023-05-18T19:59:13.454Z,81.97
2023-05-18T20:02:10.421Z,81.46
2023-05-18T20:05:09.393Z,76.18
2023-05-18T20:08:07.549Z,80.12
2023-05-18T20:11:04.431Z,81.46
2023-05-18T20:14:01.372Z,79.09
2023-05-18T20:16:59.390Z,88.54
2023-05-18T20:19:56.290Z,89.09
2023-05-18T20:22:53.126Z,83.13
2023-05-18T20:25:50.098Z,85.84
2023-05-18T20:28:46.965Z,87.24
2023-05-18T20:31:43.867Z,89.74
2023-05-18T20:34:41.423Z,91.73
2023-05-18T20:37:41.393Z,94.27
2023-05-18T20:40:38.810Z,90.46
2023-05-18T20:43:37.716Z,87.54
2023-05-18T20:46:34.722Z,87.61
2023-05-18T20:49:31.933Z,88.39
2023-05-18T20:52:29.239Z,85.69
2023-05-18T20:55:26.438Z,88.42
2023-05-18T20:58:23.285Z,88.85
2023-05-18T21:01:20.974Z,93.23
2023-05-18T21:07:16.501Z,88.52
2023-05-18T21:10:13.406Z,92.77
2023-05-18T21:13:10.798Z,91.37
2023-05-18T21:16:08.620Z,89.72
2023-05-18T21:19:05.780Z,86.77
2023-05-18T21:22:02.664Z,92.22
2023-05-18T21:24:59.651Z,83.96
2023-05-18T21:27:56.547Z,85.39
2023-05-18T21:30:54.586Z,90.19
2023-05-18T21:33:52.705Z,91.29
2023-05-18T21:36:49.925Z,89.97
2023-05-18T21:39:46.928Z,88.66
2023-05-18T21:42:45.837Z,89.58
2023-05-18T21:45:42.849Z,84.68
2023-05-18T21:48:39.695Z,89.68
2023-05-18T21:51:36.637Z,91.03
2023-05-18T21:54:35.332Z,92.57
2023-05-18T21:57:33.453Z,91.44
2023-05-18T22:00:30.655Z,91.87
2023-05-18T22:03:27.657Z,88.83
2023-05-18T22:06:24.592Z,88.90
2023-05-18T22:09:21.478Z,90.89
2023-05-18T22:12:19.105Z,91.21
2023-05-18T22:15:17.155Z,93.54
2023-05-18T22:18:14.835Z,85.93
2023-05-18T22:21:11.732Z,86.24
2023-05-18T22:24:08.621Z,85.27
2023-05-18T22:27:05.843Z,88.84
2023-05-18T22:30:04.744Z,87.74
2023-05-18T22:33:01.651Z,86.25
2023-05-18T22:35:58.545Z,87.42
2023-05-18T22:38:57.361Z,90.63
2023-05-18T22:41:54.187Z,89.31
2023-05-18T22:44:51.337Z,90.33
2023-05-18T22:47:48.968Z,93.75
2023-05-18T22:50:45.857Z,92.54
2023-05-18T22:53:42.706Z,93.13
2023-05-18T22:56:39.743Z,87.11
2023-05-18T22:59:37.524Z,91.91
2023-05-18T23:02:34.762Z,92.29
2023-05-18T23:05:32.742Z,89.91
2023-05-18T23:08:30.585Z,91.83
2023-05-18T23:11:28.517Z,86.55
2023-05-18T23:14:25.465Z,89.11
2023-05-18T23:17:22.793Z,89.35
2023-05-18T23:20:20.269Z,93.31
2023-05-18T23:23:17.126Z,93.09
2023-05-18T23:26:14.097Z,93.90
2023-05-18T23:29:11.510Z,92.91
2023-05-18T23:32:08.846Z,92.79
2023-05-18T23:35:06.815Z,99.34
2023-05-18T23:38:07.226Z,99.00
2023-05-18T23:41:05.219Z,97.96
2023-05-18T23:44:02.496Z,96.98
2023-05-18T23:47:00.122Z,98.37
2023-05-18T23:49:57.518Z,100.00
2023-05-18T23:52:57.096Z,96.83
2023-05-18T23:55:54.376Z,100.00
2023-05-18T23:58:51.554Z,91.42
